Barkersville, South Carolina
Current Conditions -  °F | °C
As of 9:04 AM on Monday 22 Dec 2014 (Local Time) from KNBC Reporting Station
Haze Haze  
Wind Chill:   Ceiling: 300
Heat Index:   Visibility: 3mi
Dew Point:   Wind: 10mph
Humidity: 93%   Direction: 20°NNE
Pressure: 30.07"   Gusts: NA
Location:  32.6221°N, 81.0484°W
Report Text: KNBC 221404Z 02009KT 3SM BR OVC003 09/08 A3007 RMK AO2 T00890078
Loading
Personal Weather Stations






























Interactive Weather Map New forecast layout! Learn more

10-Day Weather Forecast

Advertisements
Track Severe Weather on mobile